EBLG/LGG METAR and TAF weather

Enter ICAO airport designator
Station Type Date Time Source
EBLG METAR 2019/02/23 16:50 UTC NOAA

EBLG 231650Z 06007KT CAVOK 10/04 Q1035 NOSIG


Station Type Date Time Source
EBLG Decoded METAR 2019/02/23 16:50 UTC NOAA

Bierset, Belgium (EBLG) 50-39N 005-27E 178M
Feb 23, 2019 - 11:50 AM EST / 2019.02.23 1650 UTC
Wind: from the ENE (060 degrees) at 8 MPH (7 KT):0
Visibility: greater than 7 mile(s):0
Temperature: 50 F (10 C)
Dew Point: 39 F (4 C)
Relative Humidity: 66%
Pressure (altimeter): 30.56 in. Hg (1035 hPa)
ob: EBLG 231650Z 06007KT CAVOK 10/04 Q1035 NOSIG
cycle: 17

Station Type Date Time Source
EBLG TAF 2019/02/23 12:27 UTC NOAA

TAF EBLG 231110Z 2312/2418 12005KT CAVOK


Example: see airport list